createdAt,value
2023-05-03T00:01:19.188Z,15.47
2023-05-03T00:03:45.936Z,15.54
2023-05-03T00:06:16.286Z,15.47
2023-05-03T00:08:43.553Z,15.43
2023-05-03T00:11:11.260Z,15.44
2023-05-03T00:13:37.959Z,15.39
2023-05-03T00:16:04.830Z,15.32
2023-05-03T00:18:32.058Z,15.21
2023-05-03T00:20:59.594Z,15.26
2023-05-03T00:23:27.943Z,15.16
2023-05-03T00:25:55.932Z,15.18
2023-05-03T00:28:24.415Z,15.40
2023-05-03T00:30:51.920Z,15.37
2023-05-03T00:33:18.627Z,15.46
2023-05-03T00:35:45.479Z,15.51
2023-05-03T00:38:14.362Z,15.53
2023-05-03T00:40:41.416Z,15.55
2023-05-03T00:43:07.882Z,15.62
2023-05-03T00:45:35.025Z,15.58
2023-05-03T00:48:01.896Z,15.35
2023-05-03T00:50:29.382Z,15.42
2023-05-03T00:52:56.476Z,15.35
2023-05-03T00:55:23.795Z,15.34
2023-05-03T00:57:50.339Z,15.33
2023-05-03T01:00:17.917Z,15.36
2023-05-03T01:02:44.535Z,15.39
2023-05-03T01:05:11.291Z,15.33
2023-05-03T01:08:05.241Z,15.33
2023-05-03T01:10:57.436Z,15.24
2023-05-03T01:13:27.011Z,15.23
2023-05-03T01:16:21.511Z,15.14
2023-05-03T01:18:51.029Z,15.18
2023-05-03T01:21:18.649Z,15.11
2023-05-03T01:23:55.751Z,15.06
2023-05-03T01:26:28.420Z,14.99
2023-05-03T01:28:55.827Z,14.99
2023-05-03T01:31:53.362Z,14.99
2023-05-03T01:34:37.900Z,14.93
2023-05-03T01:37:05.319Z,14.90
2023-05-03T01:39:43.865Z,14.88
2023-05-03T01:42:10.687Z,14.86
2023-05-03T01:44:38.569Z,14.82
2023-05-03T01:47:05.125Z,14.91
2023-05-03T01:49:31.919Z,14.93
2023-05-03T01:51:58.355Z,14.88
2023-05-03T01:54:25.020Z,14.83
2023-05-03T01:56:51.819Z,14.81
2023-05-03T01:59:18.326Z,14.74
2023-05-03T02:01:44.847Z,14.75
2023-05-03T02:04:11.665Z,14.66
2023-05-03T02:06:38.239Z,14.66
2023-05-03T02:09:04.806Z,14.67
2023-05-03T02:11:31.332Z,14.61
2023-05-03T02:13:57.819Z,14.63
2023-05-03T02:16:24.383Z,14.58
2023-05-03T02:18:51.892Z,14.57
2023-05-03T02:21:18.697Z,14.57
2023-05-03T02:23:45.222Z,14.55
2023-05-03T02:26:11.706Z,14.46
2023-05-03T02:28:38.222Z,14.57
2023-05-03T02:31:06.347Z,14.52
2023-05-03T02:33:32.977Z,14.44
2023-05-03T02:35:59.546Z,14.45
2023-05-03T02:38:26.097Z,14.41
2023-05-03T02:40:52.621Z,14.40
2023-05-03T02:43:23.205Z,14.39
2023-05-03T02:45:50.073Z,14.36
2023-05-03T02:48:16.615Z,14.27
2023-05-03T02:50:43.132Z,14.29
2023-05-03T02:53:09.779Z,14.25
2023-05-03T02:55:36.314Z,14.14
2023-05-03T02:58:02.971Z,14.17
2023-05-03T03:00:29.508Z,14.18
2023-05-03T03:02:56.192Z,14.17
2023-05-03T03:05:22.841Z,14.12
2023-05-03T03:07:49.870Z,14.14
2023-05-03T03:10:16.546Z,14.06
2023-05-03T03:12:43.498Z,14.06
2023-05-03T03:15:10.684Z,14.00
2023-05-03T03:17:39.858Z,13.91
2023-05-03T03:20:12.857Z,13.92
2023-05-03T03:22:40.131Z,13.99
2023-05-03T03:25:07.482Z,13.88
2023-05-03T03:27:34.026Z,13.83
2023-05-03T03:30:00.975Z,13.80
2023-05-03T03:32:27.750Z,13.85
2023-05-03T03:34:54.348Z,13.70
2023-05-03T03:37:22.636Z,13.59
2023-05-03T03:39:49.194Z,13.46
2023-05-03T03:42:15.875Z,13.54
2023-05-03T03:44:42.403Z,13.52
2023-05-03T03:47:09.172Z,13.40
2023-05-03T03:49:36.298Z,13.41
2023-05-03T03:52:03.005Z,13.35
2023-05-03T03:54:29.488Z,13.41
2023-05-03T03:56:56.135Z,13.35
2023-05-03T03:59:22.935Z,13.25
2023-05-03T04:01:49.592Z,13.39
2023-05-03T04:04:16.166Z,13.40
2023-05-03T04:06:43.713Z,13.49
2023-05-03T04:09:10.537Z,13.47
2023-05-03T04:11:37.426Z,13.36
2023-05-03T04:14:04.451Z,13.36
2023-05-03T04:16:31.081Z,13.38
2023-05-03T04:18:57.600Z,13.35
2023-05-03T04:21:24.978Z,13.29
2023-05-03T04:23:51.442Z,13.18
2023-05-03T04:26:30.766Z,13.15
2023-05-03T04:28:58.675Z,13.03
2023-05-03T04:31:27.001Z,13.01
2023-05-03T04:33:53.689Z,13.05
2023-05-03T04:36:26.019Z,13.02
2023-05-03T04:38:52.805Z,12.95
2023-05-03T04:41:19.383Z,12.97
2023-05-03T04:43:46.001Z,13.10
2023-05-03T04:46:12.560Z,12.85
2023-05-03T04:48:39.094Z,12.79
2023-05-03T04:51:05.734Z,12.73
2023-05-03T04:53:32.265Z,12.80
2023-05-03T04:55:58.795Z,12.72
2023-05-03T04:58:25.876Z,12.67
2023-05-03T05:00:52.372Z,12.60
2023-05-03T05:03:18.994Z,12.74
2023-05-03T05:05:45.670Z,12.71
2023-05-03T05:08:12.441Z,12.67
2023-05-03T05:10:41.447Z,12.69
2023-05-03T05:13:08.245Z,12.77
2023-05-03T05:15:34.777Z,12.77
2023-05-03T05:18:01.362Z,12.69
2023-05-03T05:20:28.338Z,12.77
2023-05-03T05:22:54.807Z,12.78
2023-05-03T05:25:21.383Z,12.84
2023-05-03T05:27:47.899Z,12.92
2023-05-03T05:30:14.694Z,12.90
2023-05-03T05:32:41.297Z,12.93
2023-05-03T05:35:08.788Z,12.84
2023-05-03T05:37:35.376Z,12.83
2023-05-03T05:40:02.151Z,12.92
2023-05-03T05:42:29.436Z,12.96
2023-05-03T05:44:57.327Z,12.97
2023-05-03T05:47:24.015Z,13.08
2023-05-03T05:49:50.626Z,13.06
2023-05-03T05:52:17.155Z,13.12
2023-05-03T05:54:43.891Z,13.20
2023-05-03T05:57:10.954Z,13.23
2023-05-03T05:59:37.759Z,13.33
2023-05-03T06:02:04.454Z,13.18
2023-05-03T06:04:31.023Z,13.23
2023-05-03T06:06:57.591Z,13.25
2023-05-03T06:09:25.222Z,13.30
2023-05-03T06:11:52.068Z,13.34
2023-05-03T06:14:20.604Z,13.37
2023-05-03T06:16:47.580Z,13.44
2023-05-03T06:19:14.188Z,13.51
2023-05-03T06:21:40.763Z,13.46
2023-05-03T06:24:07.461Z,13.49
2023-05-03T06:26:33.932Z,13.57
2023-05-03T06:29:01.021Z,13.66
2023-05-03T06:31:27.798Z,13.69
2023-05-03T06:33:54.443Z,13.71
2023-05-03T06:36:21.141Z,13.71
2023-05-03T06:38:47.630Z,13.78
2023-05-03T06:41:14.107Z,13.83
2023-05-03T06:43:40.752Z,13.91
2023-05-03T06:46:07.313Z,13.93
2023-05-03T06:48:33.910Z,13.99
2023-05-03T06:51:00.590Z,14.05
2023-05-03T06:53:27.391Z,14.10
2023-05-03T06:55:53.891Z,14.03
2023-05-03T06:58:20.443Z,14.08
2023-05-03T07:00:47.057Z,14.06
2023-05-03T07:03:13.718Z,14.19
2023-05-03T07:05:40.550Z,14.17
2023-05-03T07:08:07.403Z,14.21
2023-05-03T07:10:34.712Z,14.20
2023-05-03T07:13:01.273Z,14.19
2023-05-03T07:15:28.065Z,14.18
2023-05-03T07:17:54.727Z,14.26
2023-05-03T07:20:21.523Z,14.28
2023-05-03T07:22:48.403Z,14.27
2023-05-03T07:25:17.732Z,14.29
2023-05-03T07:27:44.742Z,14.35
2023-05-03T07:30:11.719Z,14.46
2023-05-03T07:32:38.300Z,14.51
2023-05-03T07:35:07.300Z,14.59
2023-05-03T07:37:33.809Z,14.61
2023-05-03T07:40:00.642Z,14.68
2023-05-03T07:42:27.431Z,14.78
2023-05-03T07:44:55.440Z,14.84
2023-05-03T07:47:22.410Z,14.90
2023-05-03T07:49:50.823Z,14.98
2023-05-03T07:52:18.054Z,15.04
2023-05-03T07:54:45.875Z,15.12
2023-05-03T07:57:14.786Z,15.24
2023-05-03T07:59:41.329Z,15.28
2023-05-03T08:02:08.256Z,15.39
2023-05-03T08:04:35.796Z,15.46
2023-05-03T08:07:03.197Z,15.50
2023-05-03T08:09:30.377Z,15.62
2023-05-03T08:11:57.208Z,15.62
2023-05-03T08:14:24.130Z,15.82
2023-05-03T08:16:51.495Z,15.98
2023-05-03T08:19:18.020Z,16.06
2023-05-03T08:21:44.793Z,16.08
2023-05-03T08:24:11.622Z,16.18
2023-05-03T08:26:39.445Z,16.38
2023-05-03T08:29:05.996Z,16.53
2023-05-03T08:31:32.732Z,16.60
2023-05-03T08:33:59.231Z,16.66
2023-05-03T08:36:25.803Z,16.82
2023-05-03T08:38:52.387Z,16.91
2023-05-03T08:41:26.034Z,17.03
2023-05-03T08:43:54.502Z,17.24
2023-05-03T08:46:21.639Z,17.28
2023-05-03T08:48:51.009Z,17.30
2023-05-03T08:51:18.445Z,17.47
2023-05-03T08:53:45.805Z,17.52
2023-05-03T08:56:21.394Z,17.65
2023-05-03T08:58:47.929Z,17.79
2023-05-03T09:01:14.541Z,17.91
2023-05-03T09:03:49.583Z,18.06
2023-05-03T09:06:26.314Z,18.12
2023-05-03T09:08:54.162Z,18.23
2023-05-03T09:11:32.299Z,18.17
2023-05-03T09:14:12.082Z,18.21
2023-05-03T09:16:40.971Z,18.35
2023-05-03T09:19:12.736Z,18.61
2023-05-03T09:21:41.776Z,18.74
2023-05-03T09:24:16.907Z,18.77
2023-05-03T09:26:45.499Z,18.81
2023-05-03T09:29:28.408Z,18.93
2023-05-03T09:32:08.705Z,18.97
2023-05-03T09:34:38.270Z,19.08
2023-05-03T09:37:05.009Z,19.20
2023-05-03T09:39:31.548Z,19.30
2023-05-03T09:41:58.192Z,19.28
2023-05-03T09:44:53.908Z,19.48
2023-05-03T09:47:21.676Z,19.56
2023-05-03T09:49:48.251Z,19.68
2023-05-03T09:52:14.806Z,19.72
2023-05-03T09:54:42.505Z,19.82
2023-05-03T09:57:09.300Z,19.91
2023-05-03T09:59:37.867Z,19.86
2023-05-03T10:02:07.543Z,20.10
2023-05-03T10:04:44.048Z,20.15
2023-05-03T10:07:17.326Z,20.10
2023-05-03T10:09:45.705Z,20.16
2023-05-03T10:12:13.552Z,20.29
2023-05-03T10:14:42.685Z,20.28
2023-05-03T10:17:16.560Z,20.33
2023-05-03T10:19:55.042Z,20.51
2023-05-03T10:22:21.717Z,20.47
2023-05-03T10:24:57.180Z,20.49
2023-05-03T10:27:24.399Z,20.59
2023-05-03T10:29:52.154Z,20.56
2023-05-03T10:32:36.429Z,20.59
2023-05-03T10:35:09.867Z,20.61
2023-05-03T10:37:38.211Z,20.85
2023-05-03T10:40:10.211Z,20.82
2023-05-03T10:42:38.562Z,20.77
2023-05-03T10:45:08.909Z,20.78
2023-05-03T10:47:36.053Z,20.79
2023-05-03T10:50:14.680Z,20.90
2023-05-03T10:52:41.085Z,21.06
2023-05-03T10:55:21.809Z,21.26
2023-05-03T10:57:49.124Z,21.16
2023-05-03T11:00:33.971Z,21.28
2023-05-03T11:03:18.835Z,21.30
2023-05-03T11:05:48.271Z,21.27
2023-05-03T11:08:19.166Z,21.33
2023-05-03T11:10:49.992Z,21.36
2023-05-03T11:13:16.877Z,21.44
2023-05-03T11:15:44.492Z,21.48
2023-05-03T11:18:12.455Z,21.57
2023-05-03T11:20:39.194Z,21.49
2023-05-03T11:23:07.425Z,21.55
2023-05-03T11:25:34.679Z,21.53
2023-05-03T11:28:02.167Z,21.67
2023-05-03T11:30:29.600Z,21.72
2023-05-03T11:32:56.772Z,21.82
2023-05-03T11:35:25.879Z,21.92
2023-05-03T11:37:54.231Z,21.80
2023-05-03T11:40:21.446Z,21.85
2023-05-03T11:43:09.362Z,21.91
2023-05-03T11:45:45.552Z,21.83
2023-05-03T11:48:13.779Z,21.95
2023-05-03T11:50:49.010Z,22.12
2023-05-03T11:53:16.696Z,22.20
2023-05-03T11:55:46.397Z,22.11
2023-05-03T11:58:17.757Z,22.03
2023-05-03T12:00:51.059Z,21.99
2023-05-03T12:03:26.574Z,22.19
2023-05-03T12:05:57.511Z,22.31
2023-05-03T12:08:35.500Z,22.42
2023-05-03T12:11:07.570Z,22.49
2023-05-03T12:13:39.344Z,22.39
2023-05-03T12:16:13.821Z,22.58
2023-05-03T12:18:57.902Z,22.50
2023-05-03T12:23:57.450Z,22.49
2023-05-03T12:26:25.380Z,22.76
2023-05-03T12:28:55.649Z,22.70
2023-05-03T12:31:23.490Z,22.70
2023-05-03T12:34:13.010Z,22.62
2023-05-03T12:36:38.251Z,22.70
2023-05-03T12:39:09.435Z,22.94
2023-05-03T12:44:09.907Z,22.96
2023-05-03T12:46:37.519Z,23.03
2023-05-03T12:49:06.774Z,23.05
2023-05-03T12:51:34.609Z,22.98
2023-05-03T12:54:02.131Z,23.19
2023-05-03T12:56:32.830Z,23.15
2023-05-03T12:59:23.355Z,23.06
2023-05-03T13:03:08.265Z,23.08
2023-05-03T13:04:57.079Z,23.34
2023-05-03T13:07:27.845Z,23.45
2023-05-03T13:12:26.569Z,23.35
2023-05-03T13:14:54.834Z,23.38
2023-05-03T13:17:23.212Z,23.23
2023-05-03T13:19:51.361Z,23.36
2023-05-03T13:22:18.281Z,23.51
2023-05-03T13:24:46.959Z,23.54
2023-05-03T13:27:14.593Z,23.64
2023-05-03T13:29:41.904Z,23.44
2023-05-03T13:32:09.457Z,23.68
2023-05-03T13:34:36.720Z,23.73
2023-05-03T13:37:04.561Z,23.74
2023-05-03T13:39:32.044Z,23.68
2023-05-03T13:41:58.984Z,23.75
2023-05-03T13:44:26.145Z,23.71
2023-05-03T13:46:52.860Z,23.85
2023-05-03T13:49:19.709Z,23.78
2023-05-03T13:51:46.512Z,23.79
2023-05-03T13:54:13.075Z,23.84
2023-05-03T13:56:41.452Z,23.79
2023-05-03T13:59:09.794Z,23.96
2023-05-03T14:01:37.388Z,23.95
2023-05-03T14:04:05.207Z,23.99
2023-05-03T14:06:33.482Z,23.99
2023-05-03T14:09:01.605Z,24.06
2023-05-03T14:11:28.673Z,24.09
2023-05-03T14:13:57.341Z,24.25
2023-05-03T14:18:57.223Z,24.32
2023-05-03T14:21:24.529Z,24.30
2023-05-03T14:23:51.136Z,24.27
2023-05-03T14:26:18.314Z,24.26
2023-05-03T14:28:45.208Z,24.33
2023-05-03T14:31:13.212Z,24.24
2023-05-03T14:33:40.106Z,24.24
2023-05-03T14:36:08.069Z,24.32
2023-05-03T14:38:35.593Z,24.33
2023-05-03T14:41:02.107Z,24.49
2023-05-03T14:43:28.974Z,24.49
2023-05-03T14:45:55.636Z,24.49
2023-05-03T14:48:22.320Z,24.59
2023-05-03T14:50:49.793Z,24.70
2023-05-03T14:53:16.602Z,24.71
2023-05-03T14:55:43.620Z,24.82
2023-05-03T14:58:10.305Z,24.65
2023-05-03T15:00:41.554Z,24.74
2023-05-03T15:03:12.350Z,24.93
2023-05-03T15:05:43.280Z,24.93
2023-05-03T15:08:10.519Z,25.00
2023-05-03T15:10:40.679Z,25.06
2023-05-03T15:13:07.502Z,25.25
2023-05-03T15:15:34.124Z,25.28
2023-05-03T15:18:01.165Z,25.38
2023-05-03T15:20:27.716Z,25.44
2023-05-03T15:22:54.302Z,25.55
2023-05-03T15:25:21.068Z,25.69
2023-05-03T15:27:47.640Z,25.69
2023-05-03T15:30:15.114Z,25.98
2023-05-03T15:32:41.764Z,26.03
2023-05-03T15:35:09.240Z,26.05
2023-05-03T15:37:37.434Z,26.03
2023-05-03T15:40:05.780Z,26.20
2023-05-03T15:42:32.489Z,26.33
2023-05-03T15:44:59.023Z,26.53
2023-05-03T15:47:26.560Z,26.46
2023-05-03T15:49:53.116Z,26.62
2023-05-03T15:52:19.715Z,26.88
2023-05-03T15:54:47.043Z,27.17
2023-05-03T15:57:13.935Z,26.97
2023-05-03T15:59:40.770Z,27.15
2023-05-03T16:02:07.686Z,27.37
2023-05-03T16:04:37.190Z,27.42
2023-05-03T16:07:04.587Z,27.34
2023-05-03T16:09:31.307Z,27.47
2023-05-03T16:11:59.063Z,27.52
2023-05-03T16:14:26.422Z,27.53
2023-05-03T16:16:55.086Z,27.45
2023-05-03T16:19:25.340Z,27.19
2023-05-03T16:21:51.897Z,27.21
2023-05-03T16:24:18.395Z,27.19
2023-05-03T16:26:45.829Z,26.92
2023-05-03T16:29:12.835Z,26.92
2023-05-03T16:31:39.403Z,26.84
2023-05-03T16:34:05.936Z,26.90
2023-05-03T16:36:33.863Z,26.84
2023-05-03T16:39:00.481Z,27.41
2023-05-03T16:41:26.989Z,27.65
2023-05-03T16:43:53.564Z,27.91
2023-05-03T16:46:22.662Z,28.28
2023-05-03T16:48:50.324Z,28.11
2023-05-03T16:51:20.583Z,28.03
2023-05-03T16:53:47.088Z,27.62
2023-05-03T16:56:13.561Z,27.54
2023-05-03T16:58:40.086Z,27.59
2023-05-03T17:01:07.806Z,27.76
2023-05-03T17:03:34.564Z,27.51
2023-05-03T17:06:03.135Z,27.34
2023-05-03T17:08:30.541Z,26.97
2023-05-03T17:10:57.910Z,26.84
2023-05-03T17:13:24.943Z,26.70
2023-05-03T17:15:51.473Z,26.80
2023-05-03T17:18:18.067Z,26.53
2023-05-03T17:20:44.597Z,26.29
2023-05-03T17:23:11.184Z,26.35
2023-05-03T17:25:38.079Z,26.64
2023-05-03T17:28:04.592Z,26.60
2023-05-03T17:30:31.323Z,26.11
2023-05-03T17:32:58.089Z,25.91
2023-05-03T17:35:24.672Z,25.74
2023-05-03T17:37:51.289Z,25.49
2023-05-03T17:40:17.864Z,25.26
2023-05-03T17:42:45.456Z,24.96
2023-05-03T17:45:12.332Z,24.90
2023-05-03T17:47:39.321Z,24.84
2023-05-03T17:50:06.707Z,24.62
2023-05-03T17:52:33.289Z,24.44
2023-05-03T17:54:59.789Z,24.24
2023-05-03T17:57:26.557Z,23.98
2023-05-03T17:59:53.071Z,23.75
2023-05-03T18:02:19.647Z,23.65
2023-05-03T18:04:46.806Z,23.47
2023-05-03T18:07:13.383Z,23.32
2023-05-03T18:09:40.617Z,23.23
2023-05-03T18:12:07.282Z,23.06
2023-05-03T18:14:36.832Z,23.02
2023-05-03T18:17:03.337Z,22.90
2023-05-03T18:19:30.163Z,22.67
2023-05-03T18:21:56.725Z,22.58
2023-05-03T18:24:23.483Z,22.50
2023-05-03T18:26:50.225Z,22.37
2023-05-03T18:29:16.829Z,22.15
2023-05-03T18:31:43.479Z,21.94
2023-05-03T18:34:10.347Z,21.86
2023-05-03T18:36:36.879Z,21.74
2023-05-03T18:39:04.802Z,21.61
2023-05-03T18:41:31.924Z,21.50
2023-05-03T18:43:58.761Z,21.38
2023-05-03T18:46:25.334Z,21.30
2023-05-03T18:48:53.140Z,21.21
2023-05-03T18:51:19.692Z,21.17
2023-05-03T18:53:46.269Z,21.08
2023-05-03T18:56:13.379Z,21.00
2023-05-03T18:58:39.894Z,20.89
2023-05-03T19:01:06.701Z,20.88
2023-05-03T19:03:33.555Z,20.74
2023-05-03T19:06:04.260Z,20.66
2023-05-03T19:08:31.323Z,20.62
2023-05-03T19:10:57.810Z,20.57
2023-05-03T19:13:25.581Z,20.48
2023-05-03T19:15:52.062Z,20.43
2023-05-03T19:18:18.634Z,20.37
2023-05-03T19:20:45.147Z,20.31
2023-05-03T19:23:11.630Z,20.23
2023-05-03T19:25:38.186Z,20.16
2023-05-03T19:28:06.730Z,20.07
2023-05-03T19:30:33.870Z,19.99
2023-05-03T19:33:00.876Z,19.92
2023-05-03T19:35:27.540Z,19.83
2023-05-03T19:37:54.044Z,19.78
2023-05-03T19:40:21.589Z,19.69
2023-05-03T19:42:50.496Z,19.63
2023-05-03T19:45:17.099Z,19.60
2023-05-03T19:47:44.859Z,19.55
2023-05-03T19:50:12.578Z,19.54
2023-05-03T19:52:39.122Z,19.47
2023-05-03T19:55:07.625Z,19.36
2023-05-03T19:57:37.932Z,19.34
2023-05-03T20:00:07.125Z,19.25
2023-05-03T20:02:36.799Z,19.23
2023-05-03T20:05:05.167Z,19.20
2023-05-03T20:07:32.540Z,19.15
2023-05-03T20:09:59.062Z,19.09
2023-05-03T20:12:26.830Z,19.06
2023-05-03T20:14:53.420Z,18.98
2023-05-03T20:17:20.197Z,18.97
2023-05-03T20:19:49.947Z,18.89
2023-05-03T20:22:17.436Z,18.89
2023-05-03T20:24:44.015Z,18.86
2023-05-03T20:27:10.787Z,18.80
2023-05-03T20:29:37.310Z,18.77
2023-05-03T20:32:03.992Z,18.72
2023-05-03T20:34:30.554Z,18.68
2023-05-03T20:36:57.302Z,18.64
2023-05-03T20:39:24.146Z,18.58
2023-05-03T20:41:50.795Z,18.52
2023-05-03T20:44:17.425Z,18.51
2023-05-03T20:46:45.424Z,18.48
2023-05-03T20:49:12.018Z,18.45
2023-05-03T20:51:38.555Z,18.42
2023-05-03T20:54:05.095Z,18.36
2023-05-03T20:56:33.525Z,18.32
2023-05-03T20:59:00.118Z,18.30
2023-05-03T21:01:26.887Z,18.29
2023-05-03T21:03:55.213Z,18.21
2023-05-03T21:06:21.700Z,18.19
2023-05-03T21:08:48.849Z,18.13
2023-05-03T21:11:15.352Z,18.07
2023-05-03T21:13:42.678Z,18.06
2023-05-03T21:16:09.515Z,18.05
2023-05-03T21:18:36.175Z,17.98
2023-05-03T21:21:02.678Z,18.00
2023-05-03T21:23:29.536Z,17.85
2023-05-03T21:25:56.504Z,17.86
2023-05-03T21:28:23.218Z,17.83
2023-05-03T21:30:50.425Z,17.85
2023-05-03T21:33:16.994Z,17.79
2023-05-03T21:35:43.630Z,17.76
2023-05-03T21:38:10.272Z,17.77
2023-05-03T21:40:36.931Z,17.75
2023-05-03T21:43:05.469Z,17.69
2023-05-03T21:45:35.066Z,17.67
2023-05-03T21:48:04.664Z,17.65
2023-05-03T21:50:31.245Z,17.63
2023-05-03T21:52:57.887Z,17.60
2023-05-03T21:55:24.528Z,17.54
2023-05-03T21:57:52.114Z,17.54
2023-05-03T22:00:21.195Z,17.47
2023-05-03T22:02:48.639Z,17.53
2023-05-03T22:05:15.491Z,17.43
2023-05-03T22:07:42.078Z,17.39
2023-05-03T22:10:08.979Z,17.35
2023-05-03T22:12:35.637Z,17.32
2023-05-03T22:15:02.409Z,17.32
2023-05-03T22:17:29.082Z,17.35
2023-05-03T22:19:58.021Z,17.33
2023-05-03T22:22:24.588Z,17.30
2023-05-03T22:24:51.375Z,17.26
2023-05-03T22:27:17.982Z,17.22
2023-05-03T22:29:44.564Z,17.18
2023-05-03T22:32:11.463Z,17.14
2023-05-03T22:34:38.077Z,17.20
2023-05-03T22:37:04.668Z,17.19
2023-05-03T22:39:32.208Z,17.17
2023-05-03T22:41:58.995Z,17.12
2023-05-03T22:44:25.717Z,17.06
2023-05-03T22:46:52.273Z,17.12
2023-05-03T22:49:18.816Z,17.09
2023-05-03T22:51:45.525Z,17.03
2023-05-03T22:54:12.144Z,17.01
2023-05-03T22:56:39.285Z,17.06
2023-05-03T22:59:05.861Z,17.03
2023-05-03T23:01:33.071Z,16.98
2023-05-03T23:04:00.280Z,16.95
2023-05-03T23:06:27.177Z,16.94
2023-05-03T23:08:53.708Z,16.92
2023-05-03T23:11:21.097Z,16.92
2023-05-03T23:13:47.677Z,16.82
2023-05-03T23:16:14.641Z,16.81
2023-05-03T23:18:41.331Z,16.74
2023-05-03T23:21:08.014Z,16.72
2023-05-03T23:23:34.701Z,16.70
2023-05-03T23:26:01.754Z,16.71
2023-05-03T23:28:28.851Z,16.77
2023-05-03T23:30:56.038Z,16.74
2023-05-03T23:33:23.295Z,16.76
2023-05-03T23:35:50.291Z,16.72
2023-05-03T23:38:16.888Z,16.64
2023-05-03T23:40:43.486Z,16.67
2023-05-03T23:43:10.092Z,16.67
2023-05-03T23:45:36.687Z,16.65
2023-05-03T23:48:03.317Z,16.63
2023-05-03T23:50:30.042Z,16.62
2023-05-03T23:52:56.876Z,16.61
2023-05-03T23:55:23.384Z,16.55
2023-05-03T23:57:49.889Z,16.56
